aviador You're here:

UUEE Decoded Metar

MOSCOW/SHEREMETYEVO in RUSSIA
Report Time2017-05-30 01:00:00
UTC Time2017-05-30 01:30:37
Flight Rules ifr IFR
Wind270° at 6 kt
W.Decomp.*RWY 25: 5.9 kt HW 1.0 kt RCW
W.Rank270° ranks 11
Current wind is below 270° avg. (9.2)
Visibility9000 m
Phenomena:N/A
Clouds:Broken 006 Hf
Expected CloudBase > 400 ft AGL from Temp-Dew spread
Ceiling600 ft
Temp13°C (ISA -1)
Dew Point12°C (94% RH)
AAT11.5°C
QNH1004 hPa
Density Alt1,030 ft
Elevation623 ft
Report Wrong Elevation
Raw Report
METAR UUEE 300100Z 27003MPS 9000 BKN006 13/12 Q1004 R24R/CLRD62 R24L/CLRD62
NOSIG=

Extra information for UUEE:More info

Metar Taf Metar & Taf Last 4 Metars F.Rules Stats Wind Profile Meteogram Temp Stats Airport Information Weather charts Add Link Nearby VenuesMetar ALERT Operation Metar Decoded Social comments